sensor_id;sensor_type;location;lat;lon;timestamp;P1;durP1;ratioP1;P2;durP2;ratioP2
60169;SDS011;46042;49.444;6.862;2022-07-23T00:00:18;11.30;;;8.07;;
60169;SDS011;46042;49.444;6.862;2022-07-23T00:02:46;12.95;;;8.32;;
60169;SDS011;46042;49.444;6.862;2022-07-23T00:05:12;12.13;;;8.48;;
60169;SDS011;46042;49.444;6.862;2022-07-23T00:07:39;12.18;;;9.18;;
60169;SDS011;46042;49.444;6.862;2022-07-23T00:10:06;10.65;;;7.68;;
60169;SDS011;46042;49.444;6.862;2022-07-23T00:12:40;23.27;;;8.25;;
60169;SDS011;46042;49.444;6.862;2022-07-23T00:15:16;12.20;;;7.70;;
60169;SDS011;46042;49.444;6.862;2022-07-23T00:17:43;14.48;;;7.70;;
60169;SDS011;46042;49.444;6.862;2022-07-23T00:20:10;11.70;;;8.25;;
60169;SDS011;46042;49.444;6.862;2022-07-23T00:22:39;10.90;;;8.68;;
60169;SDS011;46042;49.444;6.862;2022-07-23T00:25:15;12.20;;;8.60;;
60169;SDS011;46042;49.444;6.862;2022-07-23T00:27:58;13.25;;;8.75;;
60169;SDS011;46042;49.444;6.862;2022-07-23T00:30:26;10.90;;;8.95;;
60169;SDS011;46042;49.444;6.862;2022-07-23T00:32:56;16.10;;;8.65;;
60169;SDS011;46042;49.444;6.862;2022-07-23T00:35:25;14.57;;;9.40;;
60169;SDS011;46042;49.444;6.862;2022-07-23T00:37:53;16.13;;;9.90;;
60169;SDS011;46042;49.444;6.862;2022-07-23T00:40:20;21.20;;;10.52;;
60169;SDS011;46042;49.444;6.862;2022-07-23T00:42:47;15.32;;;8.57;;
60169;SDS011;46042;49.444;6.862;2022-07-23T00:45:14;11.60;;;8.93;;
60169;SDS011;46042;49.444;6.862;2022-07-23T00:47:41;13.25;;;8.25;;
60169;SDS011;46042;49.444;6.862;2022-07-23T00:50:08;12.65;;;8.63;;
60169;SDS011;46042;49.444;6.862;2022-07-23T00:52:36;17.38;;;8.48;;
60169;SDS011;46042;49.444;6.862;2022-07-23T00:55:04;11.52;;;8.88;;
60169;SDS011;46042;49.444;6.862;2022-07-23T00:57:31;13.38;;;9.80;;
60169;SDS011;46042;49.444;6.862;2022-07-23T00:59:59;15.57;;;9.48;;
60169;SDS011;46042;49.444;6.862;2022-07-23T01:02:26;15.07;;;9.05;;
60169;SDS011;46042;49.444;6.862;2022-07-23T01:04:53;13.57;;;9.05;;
60169;SDS011;46042;49.444;6.862;2022-07-23T01:07:20;17.10;;;9.85;;
60169;SDS011;46042;49.444;6.862;2022-07-23T01:09:48;14.25;;;10.85;;
60169;SDS011;46042;49.444;6.862;2022-07-23T01:12:15;18.83;;;10.63;;
60169;SDS011;46042;49.444;6.862;2022-07-23T01:14:42;17.52;;;9.90;;
60169;SDS011;46042;49.444;6.862;2022-07-23T01:17:08;12.20;;;8.95;;
60169;SDS011;46042;49.444;6.862;2022-07-23T01:19:35;13.32;;;9.85;;
60169;SDS011;46042;49.444;6.862;2022-07-23T01:22:02;14.35;;;9.48;;
60169;SDS011;46042;49.444;6.862;2022-07-23T01:24:30;13.70;;;9.50;;
60169;SDS011;46042;49.444;6.862;2022-07-23T01:26:57;13.07;;;10.10;;
60169;SDS011;46042;49.444;6.862;2022-07-23T01:29:24;22.35;;;12.55;;
60169;SDS011;46042;49.444;6.862;2022-07-23T01:31:50;16.75;;;13.13;;
60169;SDS011;46042;49.444;6.862;2022-07-23T01:34:17;23.80;;;13.80;;
60169;SDS011;46042;49.444;6.862;2022-07-23T01:36:44;17.15;;;13.43;;
60169;SDS011;46042;49.444;6.862;2022-07-23T01:39:11;19.52;;;13.27;;
60169;SDS011;46042;49.444;6.862;2022-07-23T01:41:38;26.50;;;13.63;;
60169;SDS011;46042;49.444;6.862;2022-07-23T01:44:05;16.55;;;12.15;;
60169;SDS011;46042;49.444;6.862;2022-07-23T01:46:31;16.70;;;12.07;;
60169;SDS011;46042;49.444;6.862;2022-07-23T01:48:58;23.00;;;12.82;;
60169;SDS011;46042;49.444;6.862;2022-07-23T01:51:25;17.20;;;11.48;;
60169;SDS011;46042;49.444;6.862;2022-07-23T01:53:52;17.48;;;11.52;;
60169;SDS011;46042;49.444;6.862;2022-07-23T01:56:19;17.27;;;12.48;;
60169;SDS011;46042;49.444;6.862;2022-07-23T01:58:47;19.00;;;12.30;;
60169;SDS011;46042;49.444;6.862;2022-07-23T02:01:14;19.58;;;12.18;;
60169;SDS011;46042;49.444;6.862;2022-07-23T02:03:41;18.35;;;12.73;;
60169;SDS011;46042;49.444;6.862;2022-07-23T02:06:08;18.55;;;11.90;;
60169;SDS011;46042;49.444;6.862;2022-07-23T02:08:35;13.93;;;10.85;;
60169;SDS011;46042;49.444;6.862;2022-07-23T02:11:01;18.42;;;11.60;;
60169;SDS011;46042;49.444;6.862;2022-07-23T02:13:28;18.90;;;11.80;;
60169;SDS011;46042;49.444;6.862;2022-07-23T02:18:26;14.77;;;10.80;;
60169;SDS011;46042;49.444;6.862;2022-07-23T02:20:53;21.90;;;12.02;;
60169;SDS011;46042;49.444;6.862;2022-07-23T02:23:19;18.85;;;12.35;;
60169;SDS011;46042;49.444;6.862;2022-07-23T02:25:46;21.08;;;12.68;;
60169;SDS011;46042;49.444;6.862;2022-07-23T02:28:12;25.60;;;12.90;;
60169;SDS011;46042;49.444;6.862;2022-07-23T02:30:39;21.05;;;14.85;;
60169;SDS011;46042;49.444;6.862;2022-07-23T02:33:06;14.70;;;11.93;;
60169;SDS011;46042;49.444;6.862;2022-07-23T02:35:33;20.88;;;12.88;;
60169;SDS011;46042;49.444;6.862;2022-07-23T02:37:59;16.92;;;11.68;;
60169;SDS011;46042;49.444;6.862;2022-07-23T02:40:26;16.05;;;12.35;;
60169;SDS011;46042;49.444;6.862;2022-07-23T02:42:52;14.93;;;10.93;;
60169;SDS011;46042;49.444;6.862;2022-07-23T02:45:19;20.83;;;12.73;;
60169;SDS011;46042;49.444;6.862;2022-07-23T02:47:46;21.05;;;11.10;;
60169;SDS011;46042;49.444;6.862;2022-07-23T02:50:12;18.38;;;13.07;;
60169;SDS011;46042;49.444;6.862;2022-07-23T02:52:39;14.52;;;10.88;;
60169;SDS011;46042;49.444;6.862;2022-07-23T02:55:06;15.65;;;11.02;;
60169;SDS011;46042;49.444;6.862;2022-07-23T02:57:33;15.98;;;11.75;;
60169;SDS011;46042;49.444;6.862;2022-07-23T03:00:00;15.48;;;10.48;;
60169;SDS011;46042;49.444;6.862;2022-07-23T03:02:27;18.75;;;13.20;;
60169;SDS011;46042;49.444;6.862;2022-07-23T03:04:53;14.57;;;11.07;;
60169;SDS011;46042;49.444;6.862;2022-07-23T03:07:20;17.38;;;11.60;;
60169;SDS011;46042;49.444;6.862;2022-07-23T03:09:47;15.98;;;12.23;;
60169;SDS011;46042;49.444;6.862;2022-07-23T03:12:13;14.48;;;11.13;;
60169;SDS011;46042;49.444;6.862;2022-07-23T03:14:40;19.95;;;11.05;;
60169;SDS011;46042;49.444;6.862;2022-07-23T03:17:08;16.98;;;12.93;;
60169;SDS011;46042;49.444;6.862;2022-07-23T03:19:35;17.73;;;13.38;;
60169;SDS011;46042;49.444;6.862;2022-07-23T03:22:03;22.98;;;14.75;;
60169;SDS011;46042;49.444;6.862;2022-07-23T03:24:31;16.85;;;11.50;;
60169;SDS011;46042;49.444;6.862;2022-07-23T03:27:16;15.48;;;11.15;;
60169;SDS011;46042;49.444;6.862;2022-07-23T03:29:43;16.20;;;11.43;;
60169;SDS011;46042;49.444;6.862;2022-07-23T03:32:09;17.45;;;11.60;;
60169;SDS011;46042;49.444;6.862;2022-07-23T03:34:36;16.08;;;12.40;;
60169;SDS011;46042;49.444;6.862;2022-07-23T03:37:03;15.95;;;11.82;;
60169;SDS011;46042;49.444;6.862;2022-07-23T03:39:31;17.20;;;11.85;;
60169;SDS011;46042;49.444;6.862;2022-07-23T03:41:58;18.55;;;11.30;;
60169;SDS011;46042;49.444;6.862;2022-07-23T03:44:25;22.80;;;11.38;;
60169;SDS011;46042;49.444;6.862;2022-07-23T03:46:52;17.35;;;11.13;;
60169;SDS011;46042;49.444;6.862;2022-07-23T03:49:19;17.02;;;11.43;;
60169;SDS011;46042;49.444;6.862;2022-07-23T03:51:46;17.35;;;11.25;;
60169;SDS011;46042;49.444;6.862;2022-07-23T03:54:13;16.42;;;10.85;;
60169;SDS011;46042;49.444;6.862;2022-07-23T03:56:40;21.10;;;13.00;;
60169;SDS011;46042;49.444;6.862;2022-07-23T03:59:07;23.55;;;12.40;;
60169;SDS011;46042;49.444;6.862;2022-07-23T04:01:34;19.90;;;13.15;;
60169;SDS011;46042;49.444;6.862;2022-07-23T04:04:01;15.77;;;11.30;;
60169;SDS011;46042;49.444;6.862;2022-07-23T04:06:28;17.70;;;12.23;;
60169;SDS011;46042;49.444;6.862;2022-07-23T04:08:55;15.02;;;11.80;;
60169;SDS011;46042;49.444;6.862;2022-07-23T04:11:22;17.15;;;11.70;;
60169;SDS011;46042;49.444;6.862;2022-07-23T04:13:48;16.67;;;11.65;;
60169;SDS011;46042;49.444;6.862;2022-07-23T04:16:15;20.50;;;14.20;;
60169;SDS011;46042;49.444;6.862;2022-07-23T04:18:42;24.80;;;15.68;;
60169;SDS011;46042;49.444;6.862;2022-07-23T04:21:08;22.92;;;13.38;;
60169;SDS011;46042;49.444;6.862;2022-07-23T04:23:35;20.30;;;14.05;;
60169;SDS011;46042;49.444;6.862;2022-07-23T04:26:02;20.25;;;14.25;;
60169;SDS011;46042;49.444;6.862;2022-07-23T04:28:28;23.20;;;15.60;;
60169;SDS011;46042;49.444;6.862;2022-07-23T04:30:58;22.73;;;16.38;;
60169;SDS011;46042;49.444;6.862;2022-07-23T04:33:25;19.52;;;14.32;;
60169;SDS011;46042;49.444;6.862;2022-07-23T04:35:52;23.13;;;15.80;;
60169;SDS011;46042;49.444;6.862;2022-07-23T04:38:19;18.10;;;13.63;;
60169;SDS011;46042;49.444;6.862;2022-07-23T04:40:46;23.38;;;14.18;;
60169;SDS011;46042;49.444;6.862;2022-07-23T04:43:12;20.88;;;14.35;;
60169;SDS011;46042;49.444;6.862;2022-07-23T04:45:39;26.92;;;14.27;;
60169;SDS011;46042;49.444;6.862;2022-07-23T04:48:09;20.50;;;13.10;;
60169;SDS011;46042;49.444;6.862;2022-07-23T04:50:35;20.38;;;13.45;;
60169;SDS011;46042;49.444;6.862;2022-07-23T04:53:02;27.08;;;16.25;;
60169;SDS011;46042;49.444;6.862;2022-07-23T04:55:29;25.27;;;15.38;;
60169;SDS011;46042;49.444;6.862;2022-07-23T04:57:55;22.88;;;16.27;;
60169;SDS011;46042;49.444;6.862;2022-07-23T05:00:22;25.25;;;16.77;;
60169;SDS011;46042;49.444;6.862;2022-07-23T05:02:49;22.45;;;16.10;;
60169;SDS011;46042;49.444;6.862;2022-07-23T05:05:16;22.15;;;15.85;;
60169;SDS011;46042;49.444;6.862;2022-07-23T05:07:43;24.08;;;15.95;;
60169;SDS011;46042;49.444;6.862;2022-07-23T05:10:09;23.17;;;14.77;;
60169;SDS011;46042;49.444;6.862;2022-07-23T05:12:36;19.52;;;14.70;;
60169;SDS011;46042;49.444;6.862;2022-07-23T05:15:03;24.42;;;14.45;;
60169;SDS011;46042;49.444;6.862;2022-07-23T05:17:29;23.20;;;14.82;;
60169;SDS011;46042;49.444;6.862;2022-07-23T05:19:56;25.10;;;15.70;;
60169;SDS011;46042;49.444;6.862;2022-07-23T05:22:26;18.52;;;13.98;;
60169;SDS011;46042;49.444;6.862;2022-07-23T05:24:53;18.95;;;13.45;;
60169;SDS011;46042;49.444;6.862;2022-07-23T05:27:20;20.70;;;15.05;;
60169;SDS011;46042;49.444;6.862;2022-07-23T05:29:46;20.58;;;14.13;;
60169;SDS011;46042;49.444;6.862;2022-07-23T05:32:13;18.58;;;12.35;;
60169;SDS011;46042;49.444;6.862;2022-07-23T05:34:40;26.17;;;13.20;;
60169;SDS011;46042;49.444;6.862;2022-07-23T05:37:06;21.20;;;14.15;;
60169;SDS011;46042;49.444;6.862;2022-07-23T05:39:33;22.83;;;13.70;;
60169;SDS011;46042;49.444;6.862;2022-07-23T05:41:59;19.27;;;13.82;;
60169;SDS011;46042;49.444;6.862;2022-07-23T05:44:26;18.30;;;13.18;;
60169;SDS011;46042;49.444;6.862;2022-07-23T05:46:59;17.38;;;13.05;;
60169;SDS011;46042;49.444;6.862;2022-07-23T05:49:26;20.17;;;13.25;;
60169;SDS011;46042;49.444;6.862;2022-07-23T05:51:53;21.65;;;13.70;;
60169;SDS011;46042;49.444;6.862;2022-07-23T05:54:20;26.50;;;13.07;;
60169;SDS011;46042;49.444;6.862;2022-07-23T05:56:47;21.85;;;13.93;;
60169;SDS011;46042;49.444;6.862;2022-07-23T05:59:13;18.02;;;12.77;;
60169;SDS011;46042;49.444;6.862;2022-07-23T06:01:41;18.25;;;12.75;;
60169;SDS011;46042;49.444;6.862;2022-07-23T06:04:08;17.67;;;11.90;;
60169;SDS011;46042;49.444;6.862;2022-07-23T06:06:35;20.27;;;14.00;;
60169;SDS011;46042;49.444;6.862;2022-07-23T06:09:02;19.08;;;13.38;;
60169;SDS011;46042;49.444;6.862;2022-07-23T06:11:30;17.52;;;13.20;;
60169;SDS011;46042;49.444;6.862;2022-07-23T06:13:56;20.60;;;14.02;;
60169;SDS011;46042;49.444;6.862;2022-07-23T06:16:23;17.27;;;13.10;;
60169;SDS011;46042;49.444;6.862;2022-07-23T06:18:50;17.92;;;13.38;;
60169;SDS011;46042;49.444;6.862;2022-07-23T06:21:16;17.83;;;12.70;;
60169;SDS011;46042;49.444;6.862;2022-07-23T06:24:03;18.48;;;12.88;;
60169;SDS011;46042;49.444;6.862;2022-07-23T06:26:30;17.60;;;13.23;;
60169;SDS011;46042;49.444;6.862;2022-07-23T06:28:56;20.65;;;13.35;;
60169;SDS011;46042;49.444;6.862;2022-07-23T06:31:23;18.98;;;13.63;;
60169;SDS011;46042;49.444;6.862;2022-07-23T06:33:50;18.50;;;13.63;;
60169;SDS011;46042;49.444;6.862;2022-07-23T06:36:17;17.05;;;12.32;;
60169;SDS011;46042;49.444;6.862;2022-07-23T06:38:44;18.13;;;13.30;;
60169;SDS011;46042;49.444;6.862;2022-07-23T06:41:10;15.98;;;11.20;;
60169;SDS011;46042;49.444;6.862;2022-07-23T06:43:37;14.57;;;11.65;;
60169;SDS011;46042;49.444;6.862;2022-07-23T06:46:04;15.20;;;11.45;;
60169;SDS011;46042;49.444;6.862;2022-07-23T06:48:31;18.23;;;11.50;;
60169;SDS011;46042;49.444;6.862;2022-07-23T06:50:58;13.40;;;10.52;;
60169;SDS011;46042;49.444;6.862;2022-07-23T06:53:24;13.85;;;9.75;;
60169;SDS011;46042;49.444;6.862;2022-07-23T06:55:51;13.35;;;10.25;;
60169;SDS011;46042;49.444;6.862;2022-07-23T06:58:18;13.90;;;10.15;;
60169;SDS011;46042;49.444;6.862;2022-07-23T07:00:45;14.57;;;9.93;;
60169;SDS011;46042;49.444;6.862;2022-07-23T07:03:12;10.98;;;9.07;;
60169;SDS011;46042;49.444;6.862;2022-07-23T07:05:39;12.23;;;9.05;;
60169;SDS011;46042;49.444;6.862;2022-07-23T07:08:06;18.80;;;8.90;;
60169;SDS011;46042;49.444;6.862;2022-07-23T07:10:33;12.27;;;8.82;;
60169;SDS011;46042;49.444;6.862;2022-07-23T07:12:59;11.55;;;9.57;;
60169;SDS011;46042;49.444;6.862;2022-07-23T07:15:26;11.10;;;9.05;;
60169;SDS011;46042;49.444;6.862;2022-07-23T07:17:53;15.05;;;9.55;;
60169;SDS011;46042;49.444;6.862;2022-07-23T07:20:19;14.27;;;9.65;;
60169;SDS011;46042;49.444;6.862;2022-07-23T07:22:46;13.02;;;8.98;;
60169;SDS011;46042;49.444;6.862;2022-07-23T07:25:13;17.35;;;9.07;;
60169;SDS011;46042;49.444;6.862;2022-07-23T07:27:39;18.50;;;8.05;;
60169;SDS011;46042;49.444;6.862;2022-07-23T07:30:06;14.00;;;8.80;;
60169;SDS011;46042;49.444;6.862;2022-07-23T07:32:33;13.07;;;9.52;;
60169;SDS011;46042;49.444;6.862;2022-07-23T07:35:21;13.77;;;9.30;;
60169;SDS011;46042;49.444;6.862;2022-07-23T07:37:48;16.92;;;8.95;;
60169;SDS011;46042;49.444;6.862;2022-07-23T07:40:15;9.82;;;7.63;;
60169;SDS011;46042;49.444;6.862;2022-07-23T07:42:48;14.32;;;8.52;;
60169;SDS011;46042;49.444;6.862;2022-07-23T07:45:16;15.30;;;8.40;;
60169;SDS011;46042;49.444;6.862;2022-07-23T07:47:43;12.30;;;8.05;;
60169;SDS011;46042;49.444;6.862;2022-07-23T07:50:10;12.35;;;8.10;;
60169;SDS011;46042;49.444;6.862;2022-07-23T07:52:38;13.52;;;8.38;;
60169;SDS011;46042;49.444;6.862;2022-07-23T07:55:06;11.57;;;8.18;;
60169;SDS011;46042;49.444;6.862;2022-07-23T07:57:34;10.40;;;7.95;;
60169;SDS011;46042;49.444;6.862;2022-07-23T08:00:02;11.70;;;7.65;;
60169;SDS011;46042;49.444;6.862;2022-07-23T08:02:49;13.77;;;9.10;;
60169;SDS011;46042;49.444;6.862;2022-07-23T08:05:21;9.65;;;7.45;;
60169;SDS011;46042;49.444;6.862;2022-07-23T08:07:54;14.90;;;7.88;;
60169;SDS011;46042;49.444;6.862;2022-07-23T08:10:22;9.20;;;7.25;;
60169;SDS011;46042;49.444;6.862;2022-07-23T08:12:50;11.07;;;7.90;;
60169;SDS011;46042;49.444;6.862;2022-07-23T08:15:20;12.23;;;7.55;;
60169;SDS011;46042;49.444;6.862;2022-07-23T08:17:48;11.65;;;7.95;;
60169;SDS011;46042;49.444;6.862;2022-07-23T08:20:17;11.88;;;6.78;;
60169;SDS011;46042;49.444;6.862;2022-07-23T08:25:19;13.60;;;7.57;;
60169;SDS011;46042;49.444;6.862;2022-07-23T08:27:47;11.32;;;7.13;;
60169;SDS011;46042;49.444;6.862;2022-07-23T08:30:15;8.57;;;7.65;;
60169;SDS011;46042;49.444;6.862;2022-07-23T08:35:24;12.13;;;7.00;;
60169;SDS011;46042;49.444;6.862;2022-07-23T08:37:53;10.82;;;7.53;;
60169;SDS011;46042;49.444;6.862;2022-07-23T08:40:20;12.80;;;7.57;;
60169;SDS011;46042;49.444;6.862;2022-07-23T08:42:48;13.23;;;7.45;;
60169;SDS011;46042;49.444;6.862;2022-07-23T08:45:20;9.50;;;7.57;;
60169;SDS011;46042;49.444;6.862;2022-07-23T08:47:52;11.63;;;7.85;;
60169;SDS011;46042;49.444;6.862;2022-07-23T08:50:23;8.55;;;6.85;;
60169;SDS011;46042;49.444;6.862;2022-07-23T08:52:51;10.00;;;7.32;;
60169;SDS011;46042;49.444;6.862;2022-07-23T08:55:19;12.77;;;7.03;;
60169;SDS011;46042;49.444;6.862;2022-07-23T08:57:50;8.07;;;6.70;;
60169;SDS011;46042;49.444;6.862;2022-07-23T09:00:18;11.00;;;6.90;;
60169;SDS011;46042;49.444;6.862;2022-07-23T09:02:47;11.95;;;7.95;;
60169;SDS011;46042;49.444;6.862;2022-07-23T09:05:15;11.02;;;7.00;;
60169;SDS011;46042;49.444;6.862;2022-07-23T09:08:03;10.63;;;7.15;;
60169;SDS011;46042;49.444;6.862;2022-07-23T09:10:45;12.68;;;6.57;;
60169;SDS011;46042;49.444;6.862;2022-07-23T09:13:25;7.50;;;6.25;;
60169;SDS011;46042;49.444;6.862;2022-07-23T09:15:52;9.07;;;6.38;;
60169;SDS011;46042;49.444;6.862;2022-07-23T09:18:33;12.02;;;7.20;;
60169;SDS011;46042;49.444;6.862;2022-07-23T09:21:12;10.68;;;7.07;;
60169;SDS011;46042;49.444;6.862;2022-07-23T09:28:56;9.03;;;6.70;;
60169;SDS011;46042;49.444;6.862;2022-07-23T09:34:16;9.55;;;6.85;;
60169;SDS011;46042;49.444;6.862;2022-07-23T09:36:43;8.60;;;7.18;;
60169;SDS011;46042;49.444;6.862;2022-07-23T09:39:11;9.40;;;6.70;;
60169;SDS011;46042;49.444;6.862;2022-07-23T09:41:42;10.15;;;6.38;;
60169;SDS011;46042;49.444;6.862;2022-07-23T09:44:12;9.90;;;6.80;;
60169;SDS011;46042;49.444;6.862;2022-07-23T09:46:40;7.93;;;6.25;;
60169;SDS011;46042;49.444;6.862;2022-07-23T09:49:10;8.65;;;6.38;;
60169;SDS011;46042;49.444;6.862;2022-07-23T09:57:02;8.43;;;6.28;;
60169;SDS011;46042;49.444;6.862;2022-07-23T09:59:35;7.65;;;6.28;;
60169;SDS011;46042;49.444;6.862;2022-07-23T10:02:04;9.73;;;6.25;;
60169;SDS011;46042;49.444;6.862;2022-07-23T10:04:32;9.30;;;6.30;;
60169;SDS011;46042;49.444;6.862;2022-07-23T10:09:31;8.43;;;7.15;;
60169;SDS011;46042;49.444;6.862;2022-07-23T10:12:01;12.77;;;7.05;;
60169;SDS011;46042;49.444;6.862;2022-07-23T10:14:50;10.93;;;7.32;;
60169;SDS011;46042;49.444;6.862;2022-07-23T10:17:17;10.50;;;6.85;;
60169;SDS011;46042;49.444;6.862;2022-07-23T10:19:44;7.32;;;6.30;;
60169;SDS011;46042;49.444;6.862;2022-07-23T10:24:53;11.38;;;6.53;;
60169;SDS011;46042;49.444;6.862;2022-07-23T10:30:28;8.70;;;6.68;;
60169;SDS011;46042;49.444;6.862;2022-07-23T10:38:20;11.38;;;6.78;;
60169;SDS011;46042;49.444;6.862;2022-07-23T10:40:58;9.50;;;6.55;;
60169;SDS011;46042;49.444;6.862;2022-07-23T10:43:26;7.80;;;6.20;;
60169;SDS011;46042;49.444;6.862;2022-07-23T10:45:54;9.48;;;7.28;;
60169;SDS011;46042;49.444;6.862;2022-07-23T10:48:23;12.05;;;7.57;;
60169;SDS011;46042;49.444;6.862;2022-07-23T10:51:10;7.72;;;6.50;;
60169;SDS011;46042;49.444;6.862;2022-07-23T10:56:16;8.23;;;6.55;;
60169;SDS011;46042;49.444;6.862;2022-07-23T10:59:04;10.57;;;7.63;;
60169;SDS011;46042;49.444;6.862;2022-07-23T11:01:39;8.05;;;6.78;;
60169;SDS011;46042;49.444;6.862;2022-07-23T11:04:06;11.07;;;7.18;;
60169;SDS011;46042;49.444;6.862;2022-07-23T11:09:50;7.85;;;7.05;;
60169;SDS011;46042;49.444;6.862;2022-07-23T11:14:58;7.72;;;6.95;;
60169;SDS011;46042;49.444;6.862;2022-07-23T11:17:29;7.45;;;6.65;;
60169;SDS011;46042;49.444;6.862;2022-07-23T11:22:45;8.90;;;7.38;;
60169;SDS011;46042;49.444;6.862;2022-07-23T11:25:28;10.90;;;6.70;;
60169;SDS011;46042;49.444;6.862;2022-07-23T11:28:10;7.20;;;6.45;;
60169;SDS011;46042;49.444;6.862;2022-07-23T11:30:40;7.75;;;6.50;;
60169;SDS011;46042;49.444;6.862;2022-07-23T11:35:43;9.55;;;7.05;;
60169;SDS011;46042;49.444;6.862;2022-07-23T11:38:17;7.45;;;6.75;;
60169;SDS011;46042;49.444;6.862;2022-07-23T11:40:48;8.80;;;7.15;;
60169;SDS011;46042;49.444;6.862;2022-07-23T11:43:17;9.35;;;6.82;;
60169;SDS011;46042;49.444;6.862;2022-07-23T11:45:45;10.50;;;7.70;;
60169;SDS011;46042;49.444;6.862;2022-07-23T11:48:24;10.07;;;6.47;;
60169;SDS011;46042;49.444;6.862;2022-07-23T11:50:53;8.25;;;7.38;;
60169;SDS011;46042;49.444;6.862;2022-07-23T11:53:21;7.30;;;6.47;;
60169;SDS011;46042;49.444;6.862;2022-07-23T11:55:52;7.97;;;6.70;;
60169;SDS011;46042;49.444;6.862;2022-07-23T11:58:19;10.02;;;6.88;;
60169;SDS011;46042;49.444;6.862;2022-07-23T12:00:46;9.63;;;7.80;;
60169;SDS011;46042;49.444;6.862;2022-07-23T12:03:13;10.13;;;7.95;;
60169;SDS011;46042;49.444;6.862;2022-07-23T12:05:40;8.68;;;7.68;;
60169;SDS011;46042;49.444;6.862;2022-07-23T12:08:07;12.88;;;8.02;;
60169;SDS011;46042;49.444;6.862;2022-07-23T12:10:37;14.52;;;7.72;;
60169;SDS011;46042;49.444;6.862;2022-07-23T12:13:13;12.82;;;8.00;;
60169;SDS011;46042;49.444;6.862;2022-07-23T12:15:43;9.98;;;7.25;;
60169;SDS011;46042;49.444;6.862;2022-07-23T12:18:16;10.52;;;8.05;;
60169;SDS011;46042;49.444;6.862;2022-07-23T12:20:51;10.02;;;6.95;;
60169;SDS011;46042;49.444;6.862;2022-07-23T12:23:20;11.32;;;7.13;;
60169;SDS011;46042;49.444;6.862;2022-07-23T12:25:49;7.45;;;6.25;;
60169;SDS011;46042;49.444;6.862;2022-07-23T12:28:18;9.05;;;6.80;;
60169;SDS011;46042;49.444;6.862;2022-07-23T12:30:55;11.95;;;7.00;;
60169;SDS011;46042;49.444;6.862;2022-07-23T12:33:27;6.80;;;6.10;;
60169;SDS011;46042;49.444;6.862;2022-07-23T12:35:55;10.45;;;6.45;;
60169;SDS011;46042;49.444;6.862;2022-07-23T12:38:25;8.43;;;6.60;;
60169;SDS011;46042;49.444;6.862;2022-07-23T12:40:57;11.20;;;7.82;;
60169;SDS011;46042;49.444;6.862;2022-07-23T12:43:29;7.40;;;6.47;;
60169;SDS011;46042;49.444;6.862;2022-07-23T12:48:28;9.60;;;7.57;;
60169;SDS011;46042;49.444;6.862;2022-07-23T12:51:00;8.50;;;6.90;;
60169;SDS011;46042;49.444;6.862;2022-07-23T12:53:32;8.50;;;6.63;;
60169;SDS011;46042;49.444;6.862;2022-07-23T13:06:24;7.30;;;6.22;;
60169;SDS011;46042;49.444;6.862;2022-07-23T13:08:53;7.95;;;6.13;;
60169;SDS011;46042;49.444;6.862;2022-07-23T13:11:19;8.77;;;5.97;;
60169;SDS011;46042;49.444;6.862;2022-07-23T13:13:46;9.05;;;5.97;;
60169;SDS011;46042;49.444;6.862;2022-07-23T13:16:13;9.18;;;6.15;;
60169;SDS011;46042;49.444;6.862;2022-07-23T13:18:39;7.90;;;5.53;;
60169;SDS011;46042;49.444;6.862;2022-07-23T13:21:07;8.65;;;5.50;;
60169;SDS011;46042;49.444;6.862;2022-07-23T13:23:35;8.95;;;6.00;;
60169;SDS011;46042;49.444;6.862;2022-07-23T13:26:02;7.72;;;5.32;;
60169;SDS011;46042;49.444;6.862;2022-07-23T13:28:31;9.87;;;5.83;;
60169;SDS011;46042;49.444;6.862;2022-07-23T13:30:59;8.20;;;5.30;;
60169;SDS011;46042;49.444;6.862;2022-07-23T13:33:25;7.05;;;5.63;;
60169;SDS011;46042;49.444;6.862;2022-07-23T13:35:53;8.18;;;5.85;;
60169;SDS011;46042;49.444;6.862;2022-07-23T13:38:21;7.43;;;5.80;;
60169;SDS011;46042;49.444;6.862;2022-07-23T13:40:51;11.18;;;5.53;;
60169;SDS011;46042;49.444;6.862;2022-07-23T13:43:21;7.93;;;5.82;;
60169;SDS011;46042;49.444;6.862;2022-07-23T13:45:49;6.88;;;5.82;;
60169;SDS011;46042;49.444;6.862;2022-07-23T13:48:16;11.40;;;5.45;;
60169;SDS011;46042;49.444;6.862;2022-07-23T13:50:44;7.65;;;5.57;;
60169;SDS011;46042;49.444;6.862;2022-07-23T13:53:13;8.05;;;5.50;;
60169;SDS011;46042;49.444;6.862;2022-07-23T13:55:45;8.90;;;5.72;;
60169;SDS011;46042;49.444;6.862;2022-07-23T13:58:14;7.20;;;5.35;;
60169;SDS011;46042;49.444;6.862;2022-07-23T14:00:42;7.47;;;5.80;;
60169;SDS011;46042;49.444;6.862;2022-07-23T14:03:19;9.57;;;5.97;;
60169;SDS011;46042;49.444;6.862;2022-07-23T14:05:50;8.95;;;5.90;;
60169;SDS011;46042;49.444;6.862;2022-07-23T14:08:21;7.30;;;5.57;;
60169;SDS011;46042;49.444;6.862;2022-07-23T14:10:48;9.13;;;5.82;;
60169;SDS011;46042;49.444;6.862;2022-07-23T14:13:15;8.98;;;6.55;;
60169;SDS011;46042;49.444;6.862;2022-07-23T14:15:42;10.60;;;5.72;;
60169;SDS011;46042;49.444;6.862;2022-07-23T14:18:12;7.55;;;4.93;;
60169;SDS011;46042;49.444;6.862;2022-07-23T14:20:39;7.03;;;5.50;;
60169;SDS011;46042;49.444;6.862;2022-07-23T14:23:06;6.60;;;5.25;;
60169;SDS011;46042;49.444;6.862;2022-07-23T14:25:33;6.45;;;5.70;;
60169;SDS011;46042;49.444;6.862;2022-07-23T14:28:00;8.15;;;5.88;;
60169;SDS011;46042;49.444;6.862;2022-07-23T14:30:27;9.98;;;5.65;;
60169;SDS011;46042;49.444;6.862;2022-07-23T14:32:59;6.90;;;5.53;;
60169;SDS011;46042;49.444;6.862;2022-07-23T14:35:26;9.50;;;6.00;;
60169;SDS011;46042;49.444;6.862;2022-07-23T14:37:53;8.07;;;5.63;;
60169;SDS011;46042;49.444;6.862;2022-07-23T14:40:21;7.68;;;6.18;;
60169;SDS011;46042;49.444;6.862;2022-07-23T14:42:49;10.10;;;6.20;;
60169;SDS011;46042;49.444;6.862;2022-07-23T14:45:16;7.90;;;5.78;;
60169;SDS011;46042;49.444;6.862;2022-07-23T14:47:44;7.13;;;6.43;;
60169;SDS011;46042;49.444;6.862;2022-07-23T14:50:12;9.20;;;5.95;;
60169;SDS011;46042;49.444;6.862;2022-07-23T14:52:40;7.97;;;6.35;;
60169;SDS011;46042;49.444;6.862;2022-07-23T14:55:07;9.10;;;6.53;;
60169;SDS011;46042;49.444;6.862;2022-07-23T14:57:34;9.50;;;6.28;;
60169;SDS011;46042;49.444;6.862;2022-07-23T15:00:03;7.30;;;6.30;;
60169;SDS011;46042;49.444;6.862;2022-07-23T15:02:31;7.75;;;6.55;;
60169;SDS011;46042;49.444;6.862;2022-07-23T15:04:58;11.32;;;6.65;;
60169;SDS011;46042;49.444;6.862;2022-07-23T15:07:32;7.85;;;6.57;;
60169;SDS011;46042;49.444;6.862;2022-07-23T15:09:59;10.63;;;6.15;;
60169;SDS011;46042;49.444;6.862;2022-07-23T15:12:27;9.15;;;6.40;;
60169;SDS011;46042;49.444;6.862;2022-07-23T15:14:54;10.13;;;6.47;;
60169;SDS011;46042;49.444;6.862;2022-07-23T15:17:21;8.02;;;6.13;;
60169;SDS011;46042;49.444;6.862;2022-07-23T15:19:51;9.65;;;6.32;;
60169;SDS011;46042;49.444;6.862;2022-07-23T15:22:18;8.40;;;6.80;;
60169;SDS011;46042;49.444;6.862;2022-07-23T15:24:45;8.50;;;6.13;;
60169;SDS011;46042;49.444;6.862;2022-07-23T15:27:12;7.40;;;6.60;;
60169;SDS011;46042;49.444;6.862;2022-07-23T15:29:39;7.45;;;6.43;;
60169;SDS011;46042;49.444;6.862;2022-07-23T15:32:06;15.35;;;6.20;;
60169;SDS011;46042;49.444;6.862;2022-07-23T15:34:33;15.50;;;6.82;;
60169;SDS011;46042;49.444;6.862;2022-07-23T15:37:02;9.07;;;6.47;;
60169;SDS011;46042;49.444;6.862;2022-07-23T15:39:37;8.57;;;6.95;;
60169;SDS011;46042;49.444;6.862;2022-07-23T15:42:03;7.97;;;6.38;;